createdAt,value
2022-07-28T00:01:10.763Z,61.70
2022-07-28T00:03:37.694Z,65.33
2022-07-28T00:06:04.663Z,64.09
2022-07-28T00:08:31.827Z,67.96
2022-07-28T00:10:58.829Z,69.53
2022-07-28T00:13:25.772Z,69.41
2022-07-28T00:15:52.786Z,68.67
2022-07-28T00:18:19.783Z,70.61
2022-07-28T00:20:46.759Z,71.48
2022-07-28T00:23:13.760Z,72.38
2022-07-28T00:25:40.757Z,74.20
2022-07-28T00:28:07.699Z,74.10
2022-07-28T00:30:34.772Z,74.19
2022-07-28T00:33:01.960Z,70.69
2022-07-28T00:35:31.965Z,69.19
2022-07-28T00:38:01.022Z,69.57
2022-07-28T00:40:48.452Z,70.72
2022-07-28T00:43:15.911Z,75.47
2022-07-28T00:45:43.315Z,77.22
2022-07-28T00:48:10.402Z,79.22
2022-07-28T00:50:40.450Z,77.21
2022-07-28T00:53:08.860Z,77.88
2022-07-28T00:56:06.332Z,74.71
2022-07-28T00:58:27.789Z,74.56
2022-07-28T01:00:55.909Z,78.43
2022-07-28T01:03:24.726Z,79.90
2022-07-28T01:06:31.683Z,81.29
2022-07-28T01:09:24.013Z,77.64
2022-07-28T01:12:19.737Z,77.42
2022-07-28T01:15:08.133Z,79.78
2022-07-28T01:18:02.521Z,82.19
2022-07-28T01:20:40.120Z,79.19
2022-07-28T01:23:32.930Z,78.27
2022-07-28T01:26:51.355Z,79.67
2022-07-28T01:30:11.542Z,82.94
2022-07-28T01:32:52.264Z,84.61
2022-07-28T01:35:28.834Z,86.13
2022-07-28T01:38:02.113Z,85.67
2022-07-28T01:40:34.101Z,84.82
2022-07-28T01:43:08.412Z,86.90
2022-07-28T01:45:38.312Z,86.40
2022-07-28T01:48:06.962Z,85.40
2022-07-28T01:50:35.077Z,85.80
2022-07-28T01:53:03.045Z,86.84
2022-07-28T01:55:30.984Z,86.26
2022-07-28T01:57:59.328Z,88.45
2022-07-28T02:00:28.035Z,92.10
2022-07-28T02:02:57.417Z,87.14
2022-07-28T02:05:26.024Z,86.61
2022-07-28T02:07:55.516Z,92.28
2022-07-28T02:10:23.712Z,93.67
2022-07-28T02:12:53.006Z,93.40
2022-07-28T02:15:22.234Z,93.98
2022-07-28T02:17:51.388Z,94.04
2022-07-28T02:20:19.776Z,93.72
2022-07-28T02:22:51.704Z,92.96
2022-07-28T02:25:20.963Z,96.17
2022-07-28T02:27:58.373Z,95.58
2022-07-28T02:30:37.436Z,97.88
2022-07-28T02:33:13.126Z,96.23
2022-07-28T02:36:00.772Z,97.01
2022-07-28T02:38:39.733Z,99.99
2022-07-28T02:41:27.292Z,98.17
2022-07-28T02:43:59.659Z,100.00
2022-07-28T02:46:38.288Z,100.00
2022-07-28T02:49:30.462Z,100.00
2022-07-28T02:52:00.198Z,100.00
2022-07-28T02:54:29.931Z,100.00
2022-07-28T02:57:00.382Z,96.01
2022-07-28T02:59:29.188Z,99.90
2022-07-28T03:01:57.466Z,100.00
2022-07-28T03:04:44.095Z,100.00
2022-07-28T03:07:11.390Z,100.00
2022-07-28T03:09:45.757Z,100.00
2022-07-28T03:12:13.389Z,100.00
2022-07-28T03:14:41.618Z,100.00
2022-07-28T03:17:09.215Z,100.00
2022-07-28T03:19:36.893Z,100.00
2022-07-28T03:22:04.801Z,100.00
2022-07-28T03:24:37.513Z,100.00
2022-07-28T03:27:31.051Z,100.00
2022-07-28T03:30:08.522Z,100.00
2022-07-28T03:32:40.967Z,100.00
2022-07-28T03:35:09.008Z,100.00
2022-07-28T03:38:11.466Z,100.00
2022-07-28T03:40:40.005Z,100.00
2022-07-28T03:43:18.518Z,100.00
2022-07-28T03:45:47.794Z,100.00
2022-07-28T03:48:15.157Z,100.00
2022-07-28T03:50:42.574Z,100.00
2022-07-28T03:53:36.106Z,100.00
2022-07-28T03:56:03.380Z,100.00
2022-07-28T03:58:31.095Z,100.00
2022-07-28T04:00:58.709Z,100.00
2022-07-28T04:03:36.465Z,100.00
2022-07-28T04:06:15.517Z,100.00
2022-07-28T04:08:44.553Z,100.00
2022-07-28T04:11:11.615Z,100.00
2022-07-28T04:13:38.703Z,100.00
2022-07-28T04:16:06.983Z,100.00
2022-07-28T04:18:35.081Z,100.00
2022-07-28T04:21:02.390Z,100.00
2022-07-28T04:23:29.422Z,100.00
2022-07-28T04:25:56.477Z,100.00
2022-07-28T04:28:24.254Z,100.00
2022-07-28T04:30:51.356Z,100.00
2022-07-28T04:33:19.448Z,100.00
2022-07-28T04:35:47.357Z,100.00
2022-07-28T04:38:15.018Z,100.00
2022-07-28T04:40:42.465Z,100.00
2022-07-28T04:43:10.312Z,100.00
2022-07-28T04:45:37.375Z,100.00
2022-07-28T04:48:05.468Z,100.00
2022-07-28T04:50:32.897Z,100.00
2022-07-28T04:53:00.224Z,100.00
2022-07-28T04:55:27.353Z,100.00
2022-07-28T04:57:54.326Z,100.00
2022-07-28T05:00:22.955Z,100.00
2022-07-28T05:02:51.266Z,100.00
2022-07-28T05:05:18.486Z,100.00
2022-07-28T05:07:45.490Z,100.00
2022-07-28T05:10:13.020Z,100.00
2022-07-28T05:12:40.264Z,100.00
2022-07-28T05:15:09.470Z,100.00
2022-07-28T05:17:37.078Z,100.00
2022-07-28T05:20:06.142Z,100.00
2022-07-28T05:22:48.034Z,100.00
2022-07-28T05:25:21.984Z,100.00
2022-07-28T05:27:49.378Z,100.00
2022-07-28T05:30:18.317Z,100.00
2022-07-28T05:32:45.962Z,100.00
2022-07-28T05:35:13.575Z,100.00
2022-07-28T05:37:41.052Z,100.00
2022-07-28T05:40:15.031Z,97.92
2022-07-28T05:42:43.393Z,95.64
2022-07-28T05:45:15.678Z,96.33
2022-07-28T05:47:49.291Z,95.13
2022-07-28T05:50:18.126Z,93.69
2022-07-28T05:52:49.029Z,93.58
2022-07-28T05:55:16.348Z,91.46
2022-07-28T05:57:43.972Z,87.44
2022-07-28T06:00:23.070Z,88.58
2022-07-28T06:02:51.219Z,87.88
2022-07-28T06:05:20.929Z,87.26
2022-07-28T06:07:50.243Z,88.34
2022-07-28T06:10:20.326Z,87.64
2022-07-28T06:12:51.054Z,85.59
2022-07-28T06:15:25.689Z,94.07
2022-07-28T06:17:55.414Z,89.47
2022-07-28T06:20:24.388Z,85.13
2022-07-28T06:22:55.479Z,86.57
2022-07-28T06:25:28.466Z,87.29
2022-07-28T06:28:02.724Z,86.52
2022-07-28T06:30:31.776Z,89.22
2022-07-28T06:32:58.972Z,87.98
2022-07-28T06:35:26.447Z,88.19
2022-07-28T06:37:55.070Z,87.31
2022-07-28T06:40:22.402Z,91.43
2022-07-28T06:42:50.059Z,86.57
2022-07-28T06:45:19.600Z,82.59
2022-07-28T06:47:49.772Z,81.66
2022-07-28T06:50:24.888Z,80.27
2022-07-28T06:52:58.913Z,80.11
2022-07-28T06:55:34.377Z,77.71
2022-07-28T06:58:03.232Z,77.72
2022-07-28T07:00:30.668Z,75.65
2022-07-28T07:02:57.800Z,73.49
2022-07-28T07:05:25.850Z,74.80
2022-07-28T07:07:52.855Z,74.81
2022-07-28T07:10:20.092Z,74.34
2022-07-28T07:12:47.229Z,73.07
2022-07-28T07:15:14.275Z,73.18
2022-07-28T07:17:42.104Z,74.06
2022-07-28T07:20:10.705Z,74.70
2022-07-28T07:22:45.997Z,72.39
2022-07-28T07:25:16.613Z,74.86
2022-07-28T07:27:44.313Z,71.31
2022-07-28T07:30:13.211Z,72.22
2022-07-28T07:32:42.001Z,71.29
2022-07-28T07:35:09.465Z,70.86
2022-07-28T07:37:36.488Z,70.31
2022-07-28T07:40:06.282Z,69.28
2022-07-28T07:42:33.681Z,68.97
2022-07-28T07:45:01.009Z,67.45
2022-07-28T07:47:28.286Z,65.89
2022-07-28T07:49:55.286Z,65.49
2022-07-28T07:52:22.286Z,64.93
2022-07-28T07:54:49.386Z,65.11
2022-07-28T07:57:16.411Z,65.57
2022-07-28T07:59:43.557Z,65.22
2022-07-28T08:02:10.573Z,64.79
2022-07-28T08:04:38.542Z,64.28
2022-07-28T08:07:06.719Z,63.13
2022-07-28T08:09:34.422Z,63.16
2022-07-28T08:12:01.787Z,61.52
2022-07-28T08:14:28.967Z,62.93
2022-07-28T08:16:56.732Z,62.10
2022-07-28T08:19:23.982Z,61.77
2022-07-28T08:21:51.515Z,62.55
2022-07-28T08:24:32.357Z,61.62
2022-07-28T08:27:00.481Z,62.35
2022-07-28T08:29:27.616Z,62.85
2022-07-28T08:31:54.685Z,62.08
2022-07-28T08:34:32.338Z,62.35
2022-07-28T08:37:02.696Z,63.16
2022-07-28T08:39:32.066Z,64.29
2022-07-28T08:42:25.497Z,62.95
2022-07-28T08:45:01.375Z,63.39
2022-07-28T08:47:40.413Z,61.23
2022-07-28T08:50:14.022Z,59.87
2022-07-28T08:52:45.505Z,61.93
2022-07-28T08:55:19.181Z,61.28
2022-07-28T08:57:47.007Z,60.96
2022-07-28T09:00:14.701Z,62.35
2022-07-28T09:02:46.550Z,60.14
2022-07-28T09:05:23.670Z,60.37
2022-07-28T09:07:55.493Z,59.48
2022-07-28T09:10:23.470Z,59.71
2022-07-28T09:12:50.847Z,60.18
2022-07-28T09:15:18.012Z,57.86
2022-07-28T09:17:45.602Z,58.54
2022-07-28T09:20:13.776Z,58.75
2022-07-28T09:23:04.696Z,57.84
2022-07-28T09:25:33.153Z,59.15
2022-07-28T09:28:20.262Z,57.97
2022-07-28T09:30:53.969Z,57.53
2022-07-28T09:33:42.029Z,60.17
2022-07-28T09:36:16.203Z,56.36
2022-07-28T09:38:43.548Z,55.82
2022-07-28T09:41:11.260Z,55.64
2022-07-28T09:43:44.387Z,55.35
2022-07-28T09:46:19.978Z,53.78
2022-07-28T09:48:55.586Z,54.94
2022-07-28T09:51:35.831Z,54.41
2022-07-28T09:54:19.934Z,53.45
2022-07-28T09:56:47.195Z,52.77
2022-07-28T09:59:16.223Z,51.32
2022-07-28T10:02:01.650Z,52.26
2022-07-28T10:04:41.748Z,52.29
2022-07-28T10:07:15.777Z,50.57
2022-07-28T10:09:43.649Z,50.66
2022-07-28T10:12:24.338Z,47.69
2022-07-28T10:14:55.423Z,47.96
2022-07-28T10:17:34.353Z,47.97
2022-07-28T10:20:05.980Z,47.27
2022-07-28T10:22:42.777Z,46.27
2022-07-28T10:25:12.692Z,45.72
2022-07-28T10:27:44.920Z,43.63
2022-07-28T10:30:13.276Z,43.36
2022-07-28T10:32:44.511Z,42.33
2022-07-28T10:35:15.353Z,42.14
2022-07-28T10:38:12.809Z,40.70
2022-07-28T10:40:46.876Z,39.81
2022-07-28T10:43:14.923Z,39.72
2022-07-28T10:46:04.465Z,40.96
2022-07-28T10:48:31.283Z,40.08
2022-07-28T10:50:59.441Z,39.71
2022-07-28T10:53:46.789Z,40.64
2022-07-28T10:56:38.686Z,40.85
2022-07-28T10:59:37.975Z,41.07
2022-07-28T11:02:05.311Z,40.58
2022-07-28T11:04:41.495Z,40.30
2022-07-28T11:07:17.480Z,40.35
2022-07-28T11:09:47.531Z,39.64
2022-07-28T11:12:15.479Z,39.93
2022-07-28T11:14:43.736Z,40.65
2022-07-28T11:17:13.522Z,41.30
2022-07-28T11:19:55.679Z,40.99
2022-07-28T11:22:34.870Z,40.39
2022-07-28T11:25:19.715Z,39.35
2022-07-28T11:27:51.488Z,39.80
2022-07-28T11:30:19.174Z,39.44
2022-07-28T11:32:53.398Z,38.70
2022-07-28T11:35:51.966Z,39.26
2022-07-28T11:38:19.596Z,38.88
2022-07-28T11:40:57.756Z,38.31
2022-07-28T11:43:35.526Z,38.65
2022-07-28T11:46:10.275Z,38.78
2022-07-28T11:48:41.005Z,37.44
2022-07-28T11:51:10.234Z,38.03
2022-07-28T11:53:54.758Z,37.69
2022-07-28T11:56:32.303Z,38.35
2022-07-28T11:59:07.767Z,38.28
2022-07-28T12:01:36.885Z,37.61
2022-07-28T12:04:12.013Z,37.64
2022-07-28T12:06:42.990Z,37.37
2022-07-28T12:09:13.397Z,37.42
2022-07-28T12:11:42.295Z,36.74
2022-07-28T12:14:13.246Z,36.36
2022-07-28T12:16:43.679Z,36.65
2022-07-28T12:19:15.264Z,37.02
2022-07-28T12:21:47.665Z,36.52
2022-07-28T12:24:44.673Z,36.48
2022-07-28T12:27:13.634Z,36.40
2022-07-28T12:29:42.679Z,36.30
2022-07-28T12:32:10.309Z,34.98
2022-07-28T12:34:40.369Z,34.37
2022-07-28T12:37:09.940Z,33.98
2022-07-28T12:39:39.737Z,34.02
2022-07-28T12:42:08.954Z,33.62
2022-07-28T12:44:41.919Z,32.52
2022-07-28T12:47:12.463Z,31.77
2022-07-28T12:49:44.069Z,32.00
2022-07-28T12:52:24.921Z,32.22
2022-07-28T12:54:55.578Z,31.57
2022-07-28T12:57:50.431Z,31.62
2022-07-28T13:00:22.933Z,31.65
2022-07-28T13:02:53.315Z,31.62
2022-07-28T13:05:54.771Z,31.45
2022-07-28T13:08:24.512Z,32.06
2022-07-28T13:10:56.677Z,31.30
2022-07-28T13:13:24.778Z,31.58
2022-07-28T13:16:11.930Z,31.41
2022-07-28T13:18:59.367Z,31.99
2022-07-28T13:21:59.575Z,32.28
2022-07-28T13:24:30.705Z,32.40
2022-07-28T13:26:59.411Z,32.03
2022-07-28T13:29:26.696Z,31.67
2022-07-28T13:31:56.718Z,32.58
2022-07-28T13:34:23.865Z,32.65
2022-07-28T13:36:52.307Z,32.47
2022-07-28T13:39:19.321Z,31.66
2022-07-28T13:41:58.368Z,32.89
2022-07-28T13:44:29.892Z,32.73
2022-07-28T13:46:59.233Z,33.12
2022-07-28T13:49:28.229Z,34.01
2022-07-28T13:51:55.650Z,34.02
2022-07-28T13:54:23.587Z,34.00
2022-07-28T13:57:16.084Z,34.36
2022-07-28T13:59:43.877Z,34.50
2022-07-28T14:02:15.400Z,33.48
2022-07-28T14:04:45.933Z,33.79
2022-07-28T14:07:20.811Z,32.87
2022-07-28T14:09:50.583Z,32.17
2022-07-28T14:12:18.684Z,31.19
2022-07-28T14:14:48.165Z,30.97
2022-07-28T14:20:10.905Z,30.23
2022-07-28T14:22:38.230Z,30.52
2022-07-28T14:25:05.804Z,31.03
2022-07-28T14:27:52.306Z,31.00
2022-07-28T14:30:20.921Z,30.12
2022-07-28T14:32:49.034Z,29.96
2022-07-28T14:35:16.628Z,29.61
2022-07-28T14:38:35.084Z,29.38
2022-07-28T14:40:31.985Z,28.74
2022-07-28T14:42:59.932Z,29.33
2022-07-28T14:45:28.796Z,28.48
2022-07-28T14:47:56.031Z,27.71
2022-07-28T14:50:23.948Z,26.99
2022-07-28T14:52:51.304Z,26.33
2022-07-28T14:55:18.832Z,25.81
2022-07-28T14:57:48.825Z,25.20
2022-07-28T15:00:20.154Z,23.96
2022-07-28T15:02:47.764Z,23.98
2022-07-28T15:05:15.113Z,23.98
2022-07-28T15:07:42.470Z,24.46
2022-07-28T15:10:10.679Z,25.07
2022-07-28T15:12:37.912Z,25.93
2022-07-28T15:15:05.878Z,26.62
2022-07-28T15:17:33.571Z,27.22
2022-07-28T15:20:00.686Z,27.69
2022-07-28T15:22:27.752Z,28.05
2022-07-28T15:24:54.761Z,28.03
2022-07-28T15:27:21.838Z,26.73
2022-07-28T15:29:52.172Z,26.50
2022-07-28T15:32:26.313Z,27.11
2022-07-28T15:34:55.842Z,26.87
2022-07-28T15:37:23.207Z,26.09
2022-07-28T15:39:50.464Z,25.56
2022-07-28T15:42:17.571Z,26.07
2022-07-28T15:44:44.599Z,25.56
2022-07-28T15:47:11.624Z,24.74
2022-07-28T15:49:38.686Z,24.86
2022-07-28T15:52:06.038Z,24.70
2022-07-28T15:54:33.039Z,25.37
2022-07-28T15:56:59.991Z,25.13
2022-07-28T15:59:48.671Z,24.08
2022-07-28T16:02:17.495Z,24.29
2022-07-28T16:04:51.549Z,24.23
2022-07-28T16:07:24.717Z,24.74
2022-07-28T16:09:55.416Z,23.79
2022-07-28T16:12:25.281Z,23.78
2022-07-28T16:14:53.964Z,24.24
2022-07-28T16:17:22.939Z,23.72
2022-07-28T16:19:51.226Z,23.94
2022-07-28T16:22:19.975Z,23.73
2022-07-28T16:24:47.357Z,24.12
2022-07-28T16:27:14.804Z,23.83
2022-07-28T16:29:42.621Z,23.74
2022-07-28T16:32:10.095Z,23.93
2022-07-28T16:34:37.334Z,24.79
2022-07-28T16:37:05.043Z,25.08
2022-07-28T16:39:34.336Z,25.42
2022-07-28T16:42:01.760Z,25.00
2022-07-28T16:44:29.320Z,25.00
2022-07-28T16:46:56.937Z,24.19
2022-07-28T16:49:24.605Z,24.32
2022-07-28T16:51:51.721Z,23.88
2022-07-28T16:54:19.320Z,23.70
2022-07-28T16:56:48.185Z,23.49
2022-07-28T16:59:15.178Z,23.70
2022-07-28T17:01:46.184Z,24.01
2022-07-28T17:04:15.618Z,24.89
2022-07-28T17:06:42.981Z,25.22
2022-07-28T17:09:10.783Z,25.45
2022-07-28T17:11:38.027Z,25.67
2022-07-28T17:14:05.026Z,24.46
2022-07-28T17:16:32.250Z,24.78
2022-07-28T17:18:59.608Z,24.00
2022-07-28T17:21:27.034Z,22.67
2022-07-28T17:23:54.146Z,22.60
2022-07-28T17:29:09.702Z,23.15
2022-07-28T17:31:38.419Z,22.38
2022-07-28T17:34:05.754Z,23.90
2022-07-28T17:36:35.283Z,25.39
2022-07-28T17:39:02.597Z,25.65
2022-07-28T17:41:30.751Z,25.49
2022-07-28T17:43:57.816Z,25.42
2022-07-28T17:46:26.479Z,26.26
2022-07-28T17:48:54.133Z,26.59
2022-07-28T17:51:21.566Z,26.54
2022-07-28T17:53:48.894Z,27.14
2022-07-28T17:56:17.494Z,27.19
2022-07-28T17:58:45.881Z,27.87
2022-07-28T18:01:15.269Z,27.53
2022-07-28T18:03:58.275Z,27.71
2022-07-28T18:06:35.904Z,27.87
2022-07-28T18:09:07.847Z,27.90
2022-07-28T18:11:55.220Z,27.88
2022-07-28T18:14:27.166Z,28.14
2022-07-28T18:16:54.359Z,28.76
2022-07-28T18:19:21.456Z,29.04
2022-07-28T18:21:48.755Z,29.21
2022-07-28T18:24:16.209Z,29.67
2022-07-28T18:26:43.795Z,29.48
2022-07-28T18:29:10.819Z,29.55
2022-07-28T18:31:43.896Z,30.15
2022-07-28T18:34:14.257Z,29.70
2022-07-28T18:36:41.622Z,29.69
2022-07-28T18:39:08.681Z,29.67
2022-07-28T18:41:47.135Z,30.81
2022-07-28T18:44:17.448Z,30.29
2022-07-28T18:46:45.656Z,30.75
2022-07-28T18:49:12.950Z,30.86
2022-07-28T18:51:40.135Z,30.98
2022-07-28T18:54:13.395Z,31.39
2022-07-28T18:56:40.601Z,31.54
2022-07-28T18:59:07.549Z,31.59
2022-07-28T19:01:34.702Z,31.90
2022-07-28T19:04:01.869Z,31.81
2022-07-28T19:06:29.382Z,32.08
2022-07-28T19:08:56.723Z,32.08
2022-07-28T19:11:23.703Z,32.36
2022-07-28T19:13:50.866Z,32.68
2022-07-28T19:16:19.377Z,32.60
2022-07-28T19:18:46.449Z,32.65
2022-07-28T19:21:13.819Z,32.58
2022-07-28T19:23:40.921Z,33.03
2022-07-28T19:26:11.306Z,33.02
2022-07-28T19:28:38.423Z,34.02
2022-07-28T19:31:10.588Z,33.77
2022-07-28T19:33:42.817Z,33.83
2022-07-28T19:36:13.792Z,33.65
2022-07-28T19:38:52.697Z,34.02
2022-07-28T19:41:22.629Z,34.10
2022-07-28T19:43:49.811Z,34.31
2022-07-28T19:46:18.815Z,35.22
2022-07-28T19:48:45.914Z,35.73
2022-07-28T19:51:12.959Z,35.63
2022-07-28T19:53:40.094Z,35.83
2022-07-28T19:56:09.215Z,35.92
2022-07-28T19:58:36.948Z,36.69
2022-07-28T20:01:05.638Z,36.36
2022-07-28T20:04:03.112Z,36.70
2022-07-28T20:06:25.009Z,36.57
2022-07-28T20:08:53.941Z,36.44
2022-07-28T20:11:21.324Z,36.71
2022-07-28T20:13:49.430Z,36.87
2022-07-28T20:16:17.681Z,37.53
2022-07-28T20:18:44.820Z,37.23
2022-07-28T20:21:11.974Z,37.61
2022-07-28T20:23:40.848Z,37.11
2022-07-28T20:26:10.088Z,37.68
2022-07-28T20:28:37.869Z,36.97
2022-07-28T20:31:06.187Z,36.57
2022-07-28T20:33:33.274Z,36.91
2022-07-28T20:36:00.258Z,38.09
2022-07-28T20:38:27.451Z,38.54
2022-07-28T20:40:54.506Z,38.16
2022-07-28T20:43:21.568Z,38.96
2022-07-28T20:45:48.637Z,38.94
2022-07-28T20:48:16.260Z,39.07
2022-07-28T20:50:43.311Z,40.29
2022-07-28T20:53:10.654Z,40.09
2022-07-28T20:55:37.907Z,39.81
2022-07-28T20:58:06.117Z,40.33
2022-07-28T21:00:33.376Z,40.32
2022-07-28T21:03:00.524Z,40.64
2022-07-28T21:05:35.475Z,41.26
2022-07-28T21:08:06.252Z,42.75
2022-07-28T21:10:36.862Z,44.93
2022-07-28T21:13:03.965Z,44.91
2022-07-28T21:15:31.275Z,46.67
2022-07-28T21:17:59.271Z,47.83
2022-07-28T21:20:26.471Z,47.15
2022-07-28T21:22:53.736Z,47.42
2022-07-28T21:25:21.436Z,49.93
2022-07-28T21:28:07.477Z,48.54
2022-07-28T21:30:34.532Z,48.85
2022-07-28T21:33:01.543Z,49.05
2022-07-28T21:35:29.467Z,48.84
2022-07-28T21:37:56.520Z,49.56
2022-07-28T21:40:24.107Z,50.78
2022-07-28T21:42:52.002Z,45.61
2022-07-28T21:45:19.366Z,44.78
2022-07-28T21:47:46.359Z,43.95
2022-07-28T21:50:14.061Z,43.73
2022-07-28T21:52:41.210Z,44.18
2022-07-28T21:55:10.082Z,44.77
2022-07-28T21:57:37.159Z,43.36
2022-07-28T22:00:09.129Z,43.60
2022-07-28T22:02:36.649Z,43.02
2022-07-28T22:05:04.754Z,42.29
2022-07-28T22:07:32.103Z,43.03
2022-07-28T22:09:59.072Z,43.03
2022-07-28T22:12:26.059Z,43.22
2022-07-28T22:14:53.018Z,43.35
2022-07-28T22:17:19.982Z,43.38
2022-07-28T22:19:47.002Z,44.16
2022-07-28T22:22:14.072Z,45.57
2022-07-28T22:24:41.011Z,44.84
2022-07-28T22:27:08.002Z,45.71
2022-07-28T22:29:34.978Z,44.83
2022-07-28T22:32:02.143Z,45.80
2022-07-28T22:34:29.718Z,46.68
2022-07-28T22:36:56.857Z,48.19
2022-07-28T22:39:24.321Z,50.26
2022-07-28T22:41:51.251Z,49.99
2022-07-28T22:44:18.696Z,49.77
2022-07-28T22:46:46.649Z,50.27
2022-07-28T22:49:13.788Z,52.61
2022-07-28T22:51:40.908Z,53.45
2022-07-28T22:54:16.111Z,54.58
2022-07-28T22:56:43.667Z,57.00
2022-07-28T22:59:11.284Z,57.53
2022-07-28T23:01:41.436Z,60.04
2022-07-28T23:04:08.393Z,60.08
2022-07-28T23:06:35.594Z,59.88
2022-07-28T23:09:02.796Z,60.49
2022-07-28T23:11:29.789Z,61.12
2022-07-28T23:13:56.769Z,61.55
2022-07-28T23:16:23.838Z,60.86
2022-07-28T23:18:50.890Z,66.67
2022-07-28T23:21:17.870Z,69.21
2022-07-28T23:23:44.846Z,73.83
2022-07-28T23:26:12.294Z,76.51
2022-07-28T23:28:39.297Z,76.15
2022-07-28T23:31:06.456Z,79.16
2022-07-28T23:33:56.405Z,79.21
2022-07-28T23:36:26.808Z,83.33
2022-07-28T23:38:59.170Z,86.55
2022-07-28T23:41:27.121Z,87.58
2022-07-28T23:43:54.578Z,85.70
2022-07-28T23:46:21.806Z,86.82
2022-07-28T23:48:49.537Z,84.41
2022-07-28T23:51:16.598Z,81.89
2022-07-28T23:53:44.917Z,84.31
2022-07-28T23:56:13.502Z,80.96
2022-07-28T23:58:41.089Z,78.40
